Time;durP1;ratioP1;P1;durP2;ratioP2;P2;SDS_P1;SDS_P2;PMS_P1;PMS_P2;Temp;Humidity;BMP_temperature;BMP_pressure;BME280_temperature;BME280_humidity;BME280_pressure;Samples;Min_cycle;Max_cycle;Signal;HPM_P1;HPM_P2
2022/01/04 00:00:49;;;;;;;35.10;10.57;;;;;;;;;;4910533;28;105928;-66
2022/01/04 00:03:16;;;;;;;26.33;9.82;;;;;;;;;;4915328;28;107707;-67
2022/01/04 00:05:43;;;;;;;25.77;10.38;;;;;;;;;;4909695;28;106521;-66
2022/01/04 00:08:11;;;;;;;30.33;10.50;;;;;;;;;;4913245;28;107379;-67
2022/01/04 00:10:38;;;;;;;28.75;11.32;;;;;;;;;;4913066;28;106524;-67
2022/01/04 00:15:53;;;;;;;25.02;10.18;;;;;;;;;;4904479;28;109258;-67
2022/01/04 00:18:20;;;;;;;29.75;10.80;;;;;;;;;;4916750;28;105896;-67
2022/01/04 00:20:47;;;;;;;32.17;11.82;;;;;;;;;;4918502;28;106823;-67
2022/01/04 00:23:14;;;;;;;32.40;10.63;;;;;;;;;;4917135;28;107925;-68
2022/01/04 00:25:40;;;;;;;28.35;11.35;;;;;;;;;;4915839;28;107148;-67
2022/01/04 00:28:07;;;;;;;29.58;11.90;;;;;;;;;;4918680;28;106219;-67
2022/01/04 00:30:34;;;;;;;24.90;11.52;;;;;;;;;;4915458;28;106300;-67
2022/01/04 00:33:02;;;;;;;29.27;11.40;;;;;;;;;;4912573;28;106209;-67
2022/01/04 00:35:28;;;;;;;30.92;11.80;;;;;;;;;;4911385;28;106746;-67
2022/01/04 00:37:55;;;;;;;29.88;12.40;;;;;;;;;;4914167;28;105973;-68
2022/01/04 00:40:22;;;;;;;24.48;11.55;;;;;;;;;;4911106;28;108792;-67
2022/01/04 00:42:48;;;;;;;29.33;11.98;;;;;;;;;;4911076;28;106518;-67
2022/01/04 00:45:15;;;;;;;31.45;12.27;;;;;;;;;;4920651;28;106360;-67
2022/01/04 00:50:29;;;;;;;31.58;12.88;;;;;;;;;;4904573;28;106635;-67
2022/01/04 00:52:56;;;;;;;30.75;11.55;;;;;;;;;;4913950;28;106999;-67
2022/01/04 00:55:23;;;;;;;26.55;12.10;;;;;;;;;;4914296;28;106973;-67
2022/01/04 00:57:49;;;;;;;29.13;12.15;;;;;;;;;;4913928;28;106893;-67
2022/01/04 01:00:16;;;;;;;30.73;12.00;;;;;;;;;;4919849;28;106800;-67
2022/01/04 01:02:42;;;;;;;24.25;11.00;;;;;;;;;;4907921;28;107641;-67
2022/01/04 01:05:11;;;;;;;34.75;12.40;;;;;;;;;;4911899;28;106222;-68
2022/01/04 01:07:38;;;;;;;30.00;12.80;;;;;;;;;;4915353;28;106830;-68
2022/01/04 01:12:50;;;;;;;27.95;11.63;;;;;;;;;;4909055;28;105938;-67
2022/01/04 01:15:16;;;;;;;27.10;11.40;;;;;;;;;;4910452;28;107737;-67
2022/01/04 01:17:43;;;;;;;26.58;12.73;;;;;;;;;;4910802;28;107611;-67
2022/01/04 01:20:10;;;;;;;28.23;11.25;;;;;;;;;;4914415;28;106886;-67
2022/01/04 01:22:36;;;;;;;28.38;11.27;;;;;;;;;;4909883;28;107535;-67
2022/01/04 01:25:04;;;;;;;25.05;12.18;;;;;;;;;;4908320;28;106675;-67
2022/01/04 01:27:30;;;;;;;24.95;11.18;;;;;;;;;;4920100;28;107355;-67
2022/01/04 01:29:57;;;;;;;27.05;12.48;;;;;;;;;;4928616;28;107116;-67
2022/01/04 01:32:23;;;;;;;25.95;11.25;;;;;;;;;;4922092;28;106422;-67
2022/01/04 01:34:49;;;;;;;22.85;10.48;;;;;;;;;;4923854;28;106448;-66
2022/01/04 01:37:16;;;;;;;20.58;11.00;;;;;;;;;;4915668;28;106512;-66
2022/01/04 01:39:42;;;;;;;26.23;11.38;;;;;;;;;;4917625;28;107754;-66
2022/01/04 01:42:08;;;;;;;25.00;11.90;;;;;;;;;;4922006;28;107876;-66
2022/01/04 01:44:35;;;;;;;24.88;11.02;;;;;;;;;;4910226;28;106959;-66
2022/01/04 01:47:02;;;;;;;27.17;11.43;;;;;;;;;;4918201;28;107926;-65
2022/01/04 01:49:29;;;;;;;28.73;12.27;;;;;;;;;;4908450;28;106664;-66
2022/01/04 01:51:56;;;;;;;20.92;11.20;;;;;;;;;;4924365;28;107059;-66
2022/01/04 01:54:23;;;;;;;31.45;11.93;;;;;;;;;;4909905;28;106597;-66
2022/01/04 01:56:49;;;;;;;20.55;11.07;;;;;;;;;;4915137;28;106158;-66
2022/01/04 01:59:16;;;;;;;24.42;10.82;;;;;;;;;;4920030;28;105907;-66
2022/01/04 02:01:43;;;;;;;25.42;11.50;;;;;;;;;;4915435;28;106485;-66
2022/01/04 02:04:10;;;;;;;27.45;11.98;;;;;;;;;;4922591;28;106358;-66
2022/01/04 02:06:37;;;;;;;25.92;11.48;;;;;;;;;;4913716;28;107377;-65
2022/01/04 02:09:04;;;;;;;22.40;11.38;;;;;;;;;;4922337;28;107682;-65
2022/01/04 02:11:31;;;;;;;25.75;11.75;;;;;;;;;;4907586;28;106784;-65
2022/01/04 02:13:58;;;;;;;25.63;11.57;;;;;;;;;;4912871;28;107038;-65
2022/01/04 02:16:25;;;;;;;26.90;11.60;;;;;;;;;;4907086;28;107323;-66
2022/01/04 02:18:51;;;;;;;26.02;11.38;;;;;;;;;;4911238;28;108471;-65
2022/01/04 02:21:17;;;;;;;29.80;12.50;;;;;;;;;;4907618;28;106569;-66
2022/01/04 02:23:44;;;;;;;27.23;11.77;;;;;;;;;;4915652;28;107149;-65
2022/01/04 02:26:10;;;;;;;32.60;12.32;;;;;;;;;;4916222;28;106163;-65
2022/01/04 02:28:37;;;;;;;26.45;12.90;;;;;;;;;;4915235;28;106085;-65
2022/01/04 02:31:03;;;;;;;25.83;12.95;;;;;;;;;;4910511;28;106043;-68
2022/01/04 02:33:29;;;;;;;28.65;12.90;;;;;;;;;;4903397;28;108054;-66
2022/01/04 02:35:56;;;;;;;27.77;12.63;;;;;;;;;;4919582;28;107761;-65
2022/01/04 02:38:22;;;;;;;26.40;12.68;;;;;;;;;;4907835;28;107637;-65
2022/01/04 02:40:49;;;;;;;24.00;13.18;;;;;;;;;;4919827;28;107874;-65
2022/01/04 02:43:15;;;;;;;31.30;13.25;;;;;;;;;;4922853;28;106330;-65
2022/01/04 02:45:41;;;;;;;30.05;13.55;;;;;;;;;;4903347;28;106825;-65
2022/01/04 02:48:08;;;;;;;29.13;14.25;;;;;;;;;;4909182;28;106870;-66
2022/01/04 02:50:34;;;;;;;25.60;13.10;;;;;;;;;;4900683;28;107052;-65
2022/01/04 02:53:01;;;;;;;26.30;13.15;;;;;;;;;;4903830;28;106717;-66
2022/01/04 02:55:27;;;;;;;26.50;13.50;;;;;;;;;;4897925;28;107439;-66
2022/01/04 02:57:53;;;;;;;30.35;13.90;;;;;;;;;;4912270;28;106205;-65
2022/01/04 03:00:20;;;;;;;28.58;13.60;;;;;;;;;;4908867;28;106466;-65
2022/01/04 03:02:46;;;;;;;27.95;13.73;;;;;;;;;;4907010;28;106721;-65
2022/01/04 03:05:13;;;;;;;27.15;13.65;;;;;;;;;;4904263;28;108603;-66
2022/01/04 03:07:39;;;;;;;28.55;13.50;;;;;;;;;;4909345;28;106591;-66
2022/01/04 03:10:06;;;;;;;27.05;14.02;;;;;;;;;;4909423;28;106308;-67
2022/01/04 03:12:34;;;;;;;28.88;13.80;;;;;;;;;;4908157;28;106375;-65
2022/01/04 03:15:01;;;;;;;26.33;13.40;;;;;;;;;;4905140;28;109399;-65
2022/01/04 03:17:27;;;;;;;34.75;14.00;;;;;;;;;;4910182;28;106720;-66
2022/01/04 03:19:54;;;;;;;26.65;14.18;;;;;;;;;;4906403;28;106480;-66
2022/01/04 03:22:20;;;;;;;30.17;15.07;;;;;;;;;;4906936;28;107570;-66
2022/01/04 03:24:47;;;;;;;28.10;13.52;;;;;;;;;;4908940;28;108591;-66
2022/01/04 03:27:13;;;;;;;27.55;14.15;;;;;;;;;;4907720;28;108093;-66
2022/01/04 03:29:40;;;;;;;28.67;14.02;;;;;;;;;;4908984;28;105917;-66
2022/01/04 03:32:06;;;;;;;35.38;14.30;;;;;;;;;;4908355;28;107053;-66
2022/01/04 03:34:33;;;;;;;30.45;14.63;;;;;;;;;;4905837;28;109316;-66
2022/01/04 03:36:59;;;;;;;31.77;14.25;;;;;;;;;;4909770;28;106729;-66
2022/01/04 03:39:26;;;;;;;28.75;14.50;;;;;;;;;;4911534;28;106880;-66
2022/01/04 03:41:52;;;;;;;30.67;15.80;;;;;;;;;;4915731;28;106835;-66
2022/01/04 03:44:20;;;;;;;30.20;15.18;;;;;;;;;;4908791;28;106774;-66
2022/01/04 03:46:50;;;;;;;32.97;15.73;;;;;;;;;;4907432;28;108429;-66
2022/01/04 03:49:17;;;;;;;28.83;14.45;;;;;;;;;;4906755;28;106048;-66
2022/01/04 03:51:44;;;;;;;33.83;15.02;;;;;;;;;;4907391;28;109644;-66
2022/01/04 03:54:10;;;;;;;32.03;14.00;;;;;;;;;;4908261;28;108853;-66
2022/01/04 03:56:37;;;;;;;27.52;14.30;;;;;;;;;;4909647;28;106705;-66
2022/01/04 03:59:04;;;;;;;27.23;14.25;;;;;;;;;;4904567;28;107978;-66
2022/01/04 04:01:30;;;;;;;39.63;14.73;;;;;;;;;;4912046;28;107083;-66
2022/01/04 04:03:57;;;;;;;31.25;14.95;;;;;;;;;;4908240;28;106673;-66
2022/01/04 04:06:23;;;;;;;27.50;14.48;;;;;;;;;;4906535;28;108449;-67
2022/01/04 04:08:49;;;;;;;27.85;14.68;;;;;;;;;;4904200;28;105727;-66
2022/01/04 04:11:16;;;;;;;31.98;13.95;;;;;;;;;;4908419;28;106610;-66
2022/01/04 04:13:42;;;;;;;32.67;14.73;;;;;;;;;;4909274;28;107011;-65
2022/01/04 04:16:09;;;;;;;31.70;14.57;;;;;;;;;;4895649;28;106141;-66
2022/01/04 04:18:35;;;;;;;30.90;13.80;;;;;;;;;;4907558;28;106281;-66
2022/01/04 04:21:01;;;;;;;30.25;14.77;;;;;;;;;;4904098;28;107498;-66
2022/01/04 04:23:28;;;;;;;29.00;14.68;;;;;;;;;;4911795;28;106359;-66
2022/01/04 04:25:54;;;;;;;30.95;14.73;;;;;;;;;;4903839;28;106541;-66
2022/01/04 04:28:20;;;;;;;30.63;14.60;;;;;;;;;;4906307;28;106238;-66
2022/01/04 04:30:47;;;;;;;30.40;14.40;;;;;;;;;;4903696;28;106944;-66
2022/01/04 04:33:14;;;;;;;26.42;14.32;;;;;;;;;;4901721;28;107622;-67
2022/01/04 04:35:40;;;;;;;30.63;14.40;;;;;;;;;;4909426;28;106250;-66
2022/01/04 04:38:07;;;;;;;30.05;15.65;;;;;;;;;;4906810;28;106808;-66
2022/01/04 04:40:34;;;;;;;27.52;15.10;;;;;;;;;;4904532;28;110257;-65
2022/01/04 04:43:00;;;;;;;30.98;14.65;;;;;;;;;;4907089;28;107122;-66
2022/01/04 04:45:27;;;;;;;30.90;14.77;;;;;;;;;;4908832;28;107227;-66
2022/01/04 04:47:53;;;;;;;31.92;14.13;;;;;;;;;;4907651;28;106276;-66
2022/01/04 04:50:20;;;;;;;31.75;15.57;;;;;;;;;;4904088;28;106859;-66
2022/01/04 04:52:46;;;;;;;32.45;16.35;;;;;;;;;;4907645;28;107844;-66
2022/01/04 04:55:13;;;;;;;32.30;15.88;;;;;;;;;;4906167;28;107022;-66
2022/01/04 04:57:39;;;;;;;35.28;14.90;;;;;;;;;;4908698;28;107676;-66
2022/01/04 05:00:07;;;;;;;31.90;15.73;;;;;;;;;;4906120;28;107983;-66
2022/01/04 05:02:33;;;;;;;29.95;15.10;;;;;;;;;;4900544;28;106231;-66
2022/01/04 05:05:00;;;;;;;29.13;14.35;;;;;;;;;;4907672;28;106740;-65
2022/01/04 05:07:27;;;;;;;30.88;14.10;;;;;;;;;;4909975;28;106202;-66
2022/01/04 05:09:53;;;;;;;27.08;14.10;;;;;;;;;;4907153;28;106664;-66
2022/01/04 05:12:19;;;;;;;29.30;14.48;;;;;;;;;;4912537;28;106599;-66
2022/01/04 05:14:46;;;;;;;32.83;14.32;;;;;;;;;;4905393;28;106749;-66
2022/01/04 05:17:17;;;;;;;34.97;15.88;;;;;;;;;;4912232;28;107376;-66
2022/01/04 05:19:43;;;;;;;26.45;14.07;;;;;;;;;;4907818;28;107542;-66
2022/01/04 05:22:10;;;;;;;27.02;14.30;;;;;;;;;;4909085;28;105992;-65
2022/01/04 05:24:36;;;;;;;29.33;14.63;;;;;;;;;;4905674;28;105984;-66
2022/01/04 05:27:03;;;;;;;31.48;15.20;;;;;;;;;;4913529;28;109492;-67
2022/01/04 05:29:29;;;;;;;33.28;15.80;;;;;;;;;;4910355;28;106497;-66
2022/01/04 05:31:56;;;;;;;28.52;15.00;;;;;;;;;;4908946;28;109439;-65
2022/01/04 05:34:25;;;;;;;28.88;15.57;;;;;;;;;;4911001;28;105934;-66
2022/01/04 05:36:51;;;;;;;30.38;15.57;;;;;;;;;;4911788;28;106377;-66
2022/01/04 05:39:18;;;;;;;31.35;15.93;;;;;;;;;;4907488;28;106761;-66
2022/01/04 05:41:45;;;;;;;31.15;14.95;;;;;;;;;;4911760;28;106132;-66
2022/01/04 05:44:11;;;;;;;29.77;15.70;;;;;;;;;;4905421;28;106287;-66
2022/01/04 05:46:38;;;;;;;30.85;15.88;;;;;;;;;;4910711;28;107425;-67
2022/01/04 05:49:04;;;;;;;31.65;15.63;;;;;;;;;;4914123;28;106227;-65
2022/01/04 05:51:31;;;;;;;31.58;15.15;;;;;;;;;;4906793;28;107556;-66
2022/01/04 05:53:57;;;;;;;31.98;14.65;;;;;;;;;;4905826;28;106424;-65
2022/01/04 05:56:24;;;;;;;27.00;14.60;;;;;;;;;;4896723;28;107528;-67
2022/01/04 05:58:50;;;;;;;26.38;13.90;;;;;;;;;;4898344;28;107254;-65
2022/01/04 06:01:16;;;;;;;33.00;15.75;;;;;;;;;;4906879;28;106307;-65
2022/01/04 06:03:46;;;;;;;26.30;14.05;;;;;;;;;;4904592;28;107318;-66
2022/01/04 06:06:13;;;;;;;26.25;14.25;;;;;;;;;;4909308;28;108216;-66
2022/01/04 06:08:39;;;;;;;27.20;13.43;;;;;;;;;;4909881;28;106273;-66
2022/01/04 06:11:08;;;;;;;26.30;14.48;;;;;;;;;;4915343;28;106567;-66
2022/01/04 06:16:24;;;;;;;27.70;13.85;;;;;;;;;;4896222;28;106073;-66
2022/01/04 06:18:51;;;;;;;25.23;13.43;;;;;;;;;;4906459;28;108078;-66
2022/01/04 06:21:17;;;;;;;30.30;14.13;;;;;;;;;;4909009;28;106409;-66
2022/01/04 06:23:44;;;;;;;29.20;14.93;;;;;;;;;;4911146;28;106584;-65
2022/01/04 06:26:10;;;;;;;28.05;14.50;;;;;;;;;;4907288;28;106958;-66
2022/01/04 06:28:37;;;;;;;28.10;14.40;;;;;;;;;;4902360;28;106382;-67
2022/01/04 06:31:04;;;;;;;34.50;15.65;;;;;;;;;;4910381;28;106777;-65
2022/01/04 06:33:30;;;;;;;29.10;15.48;;;;;;;;;;4912936;28;106811;-66
2022/01/04 06:35:56;;;;;;;39.05;16.23;;;;;;;;;;4906396;28;109369;-66
2022/01/04 06:38:23;;;;;;;36.33;15.77;;;;;;;;;;4910671;28;106901;-66
2022/01/04 06:40:49;;;;;;;35.60;16.80;;;;;;;;;;4910787;28;106528;-66
2022/01/04 06:43:15;;;;;;;47.50;17.02;;;;;;;;;;4910340;28;106336;-67
2022/01/04 06:45:42;;;;;;;33.97;16.70;;;;;;;;;;4898759;28;106326;-66
2022/01/04 06:48:09;;;;;;;40.10;17.85;;;;;;;;;;4910826;28;105996;-67
2022/01/04 06:50:36;;;;;;;37.88;18.00;;;;;;;;;;4899577;28;106187;-66
2022/01/04 06:53:02;;;;;;;39.33;18.40;;;;;;;;;;4910285;28;107387;-66
2022/01/04 06:55:28;;;;;;;38.58;17.20;;;;;;;;;;4912034;28;105752;-67
2022/01/04 06:57:55;;;;;;;37.08;17.95;;;;;;;;;;4891566;28;107861;-67
2022/01/04 07:00:21;;;;;;;41.00;17.92;;;;;;;;;;4904853;28;106110;-67
2022/01/04 07:02:47;;;;;;;41.03;17.90;;;;;;;;;;4910057;28;107301;-66
2022/01/04 07:05:14;;;;;;;32.80;16.65;;;;;;;;;;4902826;28;109247;-67
2022/01/04 07:07:41;;;;;;;35.72;17.40;;;;;;;;;;4910711;28;105739;-67
2022/01/04 07:10:08;;;;;;;35.28;16.73;;;;;;;;;;4906932;28;106276;-67
2022/01/04 07:12:35;;;;;;;36.20;17.30;;;;;;;;;;4909652;28;108824;-66
2022/01/04 07:15:01;;;;;;;33.42;18.10;;;;;;;;;;4908201;28;106644;-66
2022/01/04 07:17:28;;;;;;;37.20;17.15;;;;;;;;;;4908505;28;106388;-66
2022/01/04 07:19:54;;;;;;;36.90;17.13;;;;;;;;;;4911018;28;106600;-67
2022/01/04 07:22:20;;;;;;;33.95;16.55;;;;;;;;;;4904608;28;106661;-67
2022/01/04 07:24:47;;;;;;;36.60;17.27;;;;;;;;;;4906606;28;110093;-67
2022/01/04 07:27:13;;;;;;;33.20;16.50;;;;;;;;;;4907389;28;106392;-68
2022/01/04 07:29:39;;;;;;;40.38;17.58;;;;;;;;;;4900826;28;107116;-67
2022/01/04 07:32:06;;;;;;;36.80;18.30;;;;;;;;;;4901864;28;107511;-66
2022/01/04 07:34:32;;;;;;;33.40;17.13;;;;;;;;;;4909343;28;105915;-67
2022/01/04 07:36:59;;;;;;;34.88;17.50;;;;;;;;;;4912319;28;107894;-67
2022/01/04 07:39:26;;;;;;;39.00;19.00;;;;;;;;;;4909805;28;106218;-66
2022/01/04 07:41:52;;;;;;;42.30;18.60;;;;;;;;;;4904792;28;106987;-67
2022/01/04 07:44:19;;;;;;;38.38;18.15;;;;;;;;;;4906762;28;107942;-66
2022/01/04 07:46:45;;;;;;;39.33;17.52;;;;;;;;;;4901935;28;107260;-65
2022/01/04 07:49:11;;;;;;;34.50;17.98;;;;;;;;;;4909463;28;107178;-66
2022/01/04 07:51:38;;;;;;;35.25;17.75;;;;;;;;;;4906862;28;107720;-66
2022/01/04 07:54:04;;;;;;;36.85;16.80;;;;;;;;;;4909168;28;106804;-65
2022/01/04 07:56:30;;;;;;;37.88;17.73;;;;;;;;;;4909103;28;106276;-66
2022/01/04 07:59:00;;;;;;;34.80;18.00;;;;;;;;;;4911007;28;108688;-65
2022/01/04 08:01:30;;;;;;;37.22;18.27;;;;;;;;;;4905624;28;106259;-66
2022/01/04 08:03:59;;;;;;;40.88;19.30;;;;;;;;;;4906833;28;106828;-65
2022/01/04 08:06:25;;;;;;;37.35;17.25;;;;;;;;;;4908504;28;106508;-65
2022/01/04 08:08:52;;;;;;;37.17;18.35;;;;;;;;;;4909710;28;107654;-65
2022/01/04 08:11:19;;;;;;;36.90;17.52;;;;;;;;;;4907868;28;107418;-65
2022/01/04 08:13:45;;;;;;;36.60;17.08;;;;;;;;;;4902756;28;106204;-65
2022/01/04 08:16:14;;;;;;;38.10;18.00;;;;;;;;;;4907176;28;107056;-65
2022/01/04 08:18:44;;;;;;;37.55;17.42;;;;;;;;;;4906249;28;107382;-65
2022/01/04 08:21:30;;;;;;;41.50;17.35;;;;;;;;;;4906964;28;105951;-65
2022/01/04 08:23:56;;;;;;;38.63;17.23;;;;;;;;;;4907229;28;107538;-66
2022/01/04 08:26:23;;;;;;;38.83;17.55;;;;;;;;;;4900647;28;106471;-64
2022/01/04 08:28:50;;;;;;;37.67;18.10;;;;;;;;;;4907481;28;106054;-66
2022/01/04 08:31:16;;;;;;;41.80;18.05;;;;;;;;;;4902921;28;106593;-64
2022/01/04 08:33:50;;;;;;;45.15;18.83;;;;;;;;;;4908996;28;106741;-64
2022/01/04 08:36:17;;;;;;;42.05;18.27;;;;;;;;;;4907709;28;106825;-64
2022/01/04 08:38:44;;;;;;;45.25;18.40;;;;;;;;;;4907512;28;106233;-64
2022/01/04 08:41:10;;;;;;;40.60;17.92;;;;;;;;;;4908827;28;106407;-65
2022/01/04 08:43:37;;;;;;;39.17;17.83;;;;;;;;;;4899532;28;106713;-65
2022/01/04 08:46:03;;;;;;;37.40;17.50;;;;;;;;;;4912856;28;106272;-65
2022/01/04 08:48:29;;;;;;;34.83;16.95;;;;;;;;;;4910427;28;106219;-65
2022/01/04 08:50:56;;;;;;;35.88;16.35;;;;;;;;;;4910229;28;106424;-66
2022/01/04 08:53:22;;;;;;;31.67;15.65;;;;;;;;;;4910144;28;107317;-66
2022/01/04 08:55:48;;;;;;;35.95;16.05;;;;;;;;;;4903052;28;107247;-65
2022/01/04 08:58:15;;;;;;;32.35;14.82;;;;;;;;;;4905653;28;106908;-65
2022/01/04 09:00:43;;;;;;;30.05;15.07;;;;;;;;;;4903135;28;107460;-65
2022/01/04 09:03:10;;;;;;;34.63;16.17;;;;;;;;;;4905924;28;107412;-66
2022/01/04 09:05:37;;;;;;;37.60;15.02;;;;;;;;;;4911782;28;106665;-67
2022/01/04 09:08:03;;;;;;;28.65;13.68;;;;;;;;;;4909134;28;106320;-66
2022/01/04 09:10:29;;;;;;;35.70;14.13;;;;;;;;;;4904823;28;109481;-65
2022/01/04 09:13:03;;;;;;;35.13;14.85;;;;;;;;;;4908805;28;106153;-65
2022/01/04 09:21:14;;;;;;;26.77;12.52;;;;;;;;;;4902431;28;107422;-67
2022/01/04 09:23:41;;;;;;;28.05;13.07;;;;;;;;;;4911828;28;107017;-66
2022/01/04 09:26:08;;;;;;;24.73;12.50;;;;;;;;;;4905480;28;108404;-67
2022/01/04 09:28:35;;;;;;;23.92;11.55;;;;;;;;;;4904499;28;106987;-66
2022/01/04 09:31:01;;;;;;;26.15;11.05;;;;;;;;;;4903567;28;107660;-65
2022/01/04 09:33:28;;;;;;;23.50;11.23;;;;;;;;;;4905984;28;106674;-66
2022/01/04 09:36:16;;;;;;;23.25;11.10;;;;;;;;;;4905181;28;106208;-66
2022/01/04 09:38:42;;;;;;;18.83;9.98;;;;;;;;;;4904191;28;109048;-66
2022/01/04 09:41:09;;;;;;;17.05;8.10;;;;;;;;;;4909622;28;105863;-66
2022/01/04 09:43:35;;;;;;;13.82;7.50;;;;;;;;;;4905372;28;108665;-65
2022/01/04 09:46:06;;;;;;;15.18;7.63;;;;;;;;;;4906764;28;106460;-65
2022/01/04 09:48:33;;;;;;;14.75;6.63;;;;;;;;;;4908919;28;106240;-65
2022/01/04 09:50:59;;;;;;;12.63;6.05;;;;;;;;;;4902116;28;107468;-65
2022/01/04 09:53:26;;;;;;;12.80;5.75;;;;;;;;;;4904821;28;105858;-66
2022/01/04 09:55:53;;;;;;;9.60;4.60;;;;;;;;;;4906315;28;106795;-66
2022/01/04 09:58:21;;;;;;;10.60;5.18;;;;;;;;;;4909315;28;107487;-66
2022/01/04 10:00:48;;;;;;;10.68;4.88;;;;;;;;;;4909199;28;107513;-66
2022/01/04 10:03:28;;;;;;;9.57;3.88;;;;;;;;;;4910387;28;105997;-66
2022/01/04 10:06:14;;;;;;;8.85;3.95;;;;;;;;;;4910067;28;106500;-66
2022/01/04 10:08:50;;;;;;;8.10;3.70;;;;;;;;;;4910003;28;106328;-66
2022/01/04 10:11:16;;;;;;;6.82;3.38;;;;;;;;;;4907911;28;107674;-66
2022/01/04 10:13:43;;;;;;;5.38;3.47;;;;;;;;;;4910413;28;107433;-66
2022/01/04 10:16:16;;;;;;;9.77;3.70;;;;;;;;;;4903733;28;106127;-67
2022/01/04 10:18:46;;;;;;;8.60;3.47;;;;;;;;;;4904905;28;106621;-67
2022/01/04 10:21:13;;;;;;;6.55;3.30;;;;;;;;;;4909376;28;106822;-67
2022/01/04 10:23:45;;;;;;;5.75;3.47;;;;;;;;;;4917324;28;108319;-68
2022/01/04 10:26:12;;;;;;;7.40;3.60;;;;;;;;;;4900084;28;108553;-68
2022/01/04 10:28:40;;;;;;;5.80;3.40;;;;;;;;;;4905286;28;106607;-68
2022/01/04 10:31:08;;;;;;;9.52;4.07;;;;;;;;;;4896771;28;107857;-67
2022/01/04 10:33:35;;;;;;;9.20;3.72;;;;;;;;;;4912240;28;106538;-65
2022/01/04 10:36:08;;;;;;;10.07;4.38;;;;;;;;;;4909930;28;108334;-64
2022/01/04 10:38:36;;;;;;;7.15;4.13;;;;;;;;;;4900060;28;107802;-66
2022/01/04 10:41:03;;;;;;;11.43;4.57;;;;;;;;;;4907419;28;106137;-65
2022/01/04 10:43:36;;;;;;;10.35;4.55;;;;;;;;;;4908973;28;106216;-65
2022/01/04 10:46:04;;;;;;;11.02;4.55;;;;;;;;;;4907659;28;106486;-65
2022/01/04 10:48:32;;;;;;;12.82;5.75;;;;;;;;;;4904956;28;106744;-65
2022/01/04 10:51:05;;;;;;;11.63;5.93;;;;;;;;;;4904764;28;107131;-66
2022/01/04 10:53:36;;;;;;;10.07;5.00;;;;;;;;;;4908237;28;106838;-64
2022/01/04 10:56:05;;;;;;;12.40;5.72;;;;;;;;;;4909637;28;106674;-66
2022/01/04 10:58:37;;;;;;;12.45;5.20;;;;;;;;;;4907860;28;107865;-65
2022/01/04 11:01:10;;;;;;;10.43;5.07;;;;;;;;;;4901741;28;106863;-66
2022/01/04 11:03:38;;;;;;;12.90;5.95;;;;;;;;;;4907774;28;107133;-65
2022/01/04 11:06:06;;;;;;;20.23;6.20;;;;;;;;;;4909008;28;106264;-66
2022/01/04 11:08:32;;;;;;;14.02;6.32;;;;;;;;;;4908739;28;107906;-66
2022/01/04 11:10:59;;;;;;;14.07;6.47;;;;;;;;;;4908738;28;108439;-66
2022/01/04 11:13:25;;;;;;;17.35;7.22;;;;;;;;;;4904740;28;108244;-66
2022/01/04 11:15:53;;;;;;;15.95;7.15;;;;;;;;;;4910113;28;106872;-65
2022/01/04 11:18:19;;;;;;;12.93;7.15;;;;;;;;;;4912320;28;106178;-65
2022/01/04 11:20:46;;;;;;;13.15;7.30;;;;;;;;;;4906894;28;106275;-65
2022/01/04 11:23:13;;;;;;;16.90;8.07;;;;;;;;;;4906588;28;107063;-66
2022/01/04 11:25:42;;;;;;;12.35;6.45;;;;;;;;;;4905117;28;107933;-66
2022/01/04 11:28:09;;;;;;;12.63;6.65;;;;;;;;;;4900772;28;106064;-66
2022/01/04 11:30:53;;;;;;;17.75;7.43;;;;;;;;;;4909477;28;106368;-65
2022/01/04 11:33:30;;;;;;;12.98;6.63;;;;;;;;;;4906456;28;106402;-66
2022/01/04 11:35:56;;;;;;;17.83;6.60;;;;;;;;;;4905681;28;106604;-65
2022/01/04 11:38:31;;;;;;;23.58;8.65;;;;;;;;;;4908471;28;107459;-65
2022/01/04 11:40:58;;;;;;;18.67;7.75;;;;;;;;;;4903187;28;106663;-65
2022/01/04 11:43:28;;;;;;;18.63;7.28;;;;;;;;;;4907258;28;107421;-66
2022/01/04 11:45:55;;;;;;;17.45;6.35;;;;;;;;;;4905877;28;106572;-65
2022/01/04 11:48:26;;;;;;;11.73;4.53;;;;;;;;;;4903746;28;107850;-67
2022/01/04 11:50:58;;;;;;;16.98;3.90;;;;;;;;;;4904288;28;109434;-65
2022/01/04 11:53:25;;;;;;;18.65;3.53;;;;;;;;;;4906039;28;107508;-65
2022/01/04 11:55:53;;;;;;;13.30;2.60;;;;;;;;;;4904680;28;107262;-66
2022/01/04 11:58:23;;;;;;;7.75;1.80;;;;;;;;;;4904244;28;107033;-66
2022/01/04 12:01:03;;;;;;;7.25;2.20;;;;;;;;;;4904228;28;108307;-65
2022/01/04 12:03:42;;;;;;;7.50;1.85;;;;;;;;;;4899343;28;106219;-64
2022/01/04 12:06:10;;;;;;;9.17;1.90;;;;;;;;;;4909003;28;106514;-67
2022/01/04 12:08:36;;;;;;;5.50;1.40;;;;;;;;;;4908571;28;106361;-66
2022/01/04 12:11:25;;;;;;;2.80;1.20;;;;;;;;;;4908590;28;107185;-68
2022/01/04 12:13:56;;;;;;;7.05;1.70;;;;;;;;;;4897415;28;109472;-66
2022/01/04 12:16:36;;;;;;;5.50;1.40;;;;;;;;;;4908463;28;105992;-68
2022/01/04 12:19:07;;;;;;;6.25;1.63;;;;;;;;;;4904357;28;106877;-66
2022/01/04 12:21:35;;;;;;;4.38;1.27;;;;;;;;;;4903977;28;109144;-67
2022/01/04 12:24:02;;;;;;;7.50;1.30;;;;;;;;;;4914659;28;106035;-65
2022/01/04 12:26:32;;;;;;;6.10;1.48;;;;;;;;;;4911774;28;106552;-65
2022/01/04 12:28:58;;;;;;;4.30;1.67;;;;;;;;;;4903809;28;106024;-66
2022/01/04 12:31:26;;;;;;;8.27;1.60;;;;;;;;;;4911100;28;107114;-66
2022/01/04 12:33:52;;;;;;;7.10;1.50;;;;;;;;;;4911584;28;107349;-65
2022/01/04 12:36:42;;;;;;;3.17;1.48;;;;;;;;;;4910536;28;106391;-65
2022/01/04 12:39:13;;;;;;;4.95;1.40;;;;;;;;;;4911883;28;108312;-65
2022/01/04 12:41:40;;;;;;;5.47;1.85;;;;;;;;;;4921100;28;106883;-65
2022/01/04 12:44:10;;;;;;;6.65;1.98;;;;;;;;;;4905995;28;106081;-65
2022/01/04 12:46:46;;;;;;;4.22;1.60;;;;;;;;;;4911727;28;106123;-67
2022/01/04 12:49:14;;;;;;;8.30;1.98;;;;;;;;;;4904649;28;106319;-67
2022/01/04 12:51:52;;;;;;;7.25;1.67;;;;;;;;;;4909834;28;106941;-67
2022/01/04 12:54:22;;;;;;;7.53;1.80;;;;;;;;;;4908440;28;106335;-67
2022/01/04 12:56:50;;;;;;;6.93;1.63;;;;;;;;;;4910698;28;105890;-67
2022/01/04 12:59:19;;;;;;;3.50;1.40;;;;;;;;;;4909605;28;107252;-67
2022/01/04 13:01:56;;;;;;;4.72;1.85;;;;;;;;;;4904366;28;106472;-67
2022/01/04 13:04:24;;;;;;;5.15;1.30;;;;;;;;;;4906240;28;106564;-68
2022/01/04 13:06:51;;;;;;;5.38;1.50;;;;;;;;;;4909358;28;107682;-67
2022/01/04 13:09:25;;;;;;;3.08;1.38;;;;;;;;;;4911994;28;107381;-67
2022/01/04 13:12:00;;;;;;;2.40;1.35;;;;;;;;;;4910092;28;106530;-66
2022/01/04 13:14:31;;;;;;;3.83;1.40;;;;;;;;;;4908547;28;109344;-66
2022/01/04 13:17:09;;;;;;;6.38;1.80;;;;;;;;;;4910145;28;106064;-66
2022/01/04 13:19:37;;;;;;;5.95;1.50;;;;;;;;;;4909613;28;109287;-66
2022/01/04 13:22:14;;;;;;;4.30;1.50;;;;;;;;;;4908618;28;106699;-65
2022/01/04 13:24:41;;;;;;;5.95;1.55;;;;;;;;;;4908822;28;106352;-66
2022/01/04 13:27:22;;;;;;;5.38;1.30;;;;;;;;;;4910665;28;108627;-66
2022/01/04 13:29:50;;;;;;;4.20;1.45;;;;;;;;;;4903819;28;106248;-66
2022/01/04 13:32:17;;;;;;;2.92;1.20;;;;;;;;;;4911227;28;107680;-65
2022/01/04 13:34:43;;;;;;;4.88;1.30;;;;;;;;;;4889308;28;108323;-67
2022/01/04 13:37:10;;;;;;;2.95;1.20;;;;;;;;;;4916812;28;105779;-66
2022/01/04 13:39:36;;;;;;;7.82;1.05;;;;;;;;;;4907527;28;108474;-64
2022/01/04 13:42:23;;;;;;;2.67;0.80;;;;;;;;;;4907241;28;108031;-64
2022/01/04 13:44:53;;;;;;;6.15;1.30;;;;;;;;;;4907139;28;106274;-64
2022/01/04 13:47:21;;;;;;;3.67;1.23;;;;;;;;;;4906786;28;106977;-64
2022/01/04 13:49:48;;;;;;;5.47;1.63;;;;;;;;;;4906560;28;107607;-64
2022/01/04 13:52:15;;;;;;;10.80;1.30;;;;;;;;;;4912653;28;106087;-64
2022/01/04 13:54:41;;;;;;;7.57;1.55;;;;;;;;;;4909335;28;107612;-63
2022/01/04 13:57:12;;;;;;;9.90;1.25;;;;;;;;;;4905393;28;106125;-64
2022/01/04 13:59:38;;;;;;;5.18;1.10;;;;;;;;;;4898479;28;106951;-65
2022/01/04 14:02:22;;;;;;;5.05;1.40;;;;;;;;;;4902783;28;107467;-65
2022/01/04 14:04:48;;;;;;;4.50;1.33;;;;;;;;;;4908787;28;106399;-66
2022/01/04 14:07:15;;;;;;;6.32;1.08;;;;;;;;;;4909517;28;108023;-65
2022/01/04 14:09:44;;;;;;;9.90;1.25;;;;;;;;;;4909419;28;107012;-66
2022/01/04 14:12:12;;;;;;;5.85;1.17;;;;;;;;;;4906968;28;105986;-68
2022/01/04 14:14:38;;;;;;;9.10;1.77;;;;;;;;;;4911017;28;108318;-66
2022/01/04 14:17:06;;;;;;;14.05;2.70;;;;;;;;;;4905286;28;106807;-65
2022/01/04 14:19:34;;;;;;;15.23;2.90;;;;;;;;;;4907447;28;106016;-65
2022/01/04 14:22:03;;;;;;;5.85;1.25;;;;;;;;;;4909943;28;107442;-65
2022/01/04 14:24:34;;;;;;;4.55;1.35;;;;;;;;;;4908988;28;106616;-64
2022/01/04 14:27:02;;;;;;;5.90;1.00;;;;;;;;;;4914661;28;106138;-65
2022/01/04 14:29:33;;;;;;;7.30;1.30;;;;;;;;;;4904616;28;106511;-65
2022/01/04 14:32:04;;;;;;;14.75;1.42;;;;;;;;;;4898949;28;107148;-65